Terminal Aerodrome Forecast
Issued by NWS

Home | Current Version | Previous Version | Text Only | Print | Product List | Glossary On
Versions: 1 2 3 4 5 6 7 8 9 10 11 12 13 14 15 16 17 18 19 20 21
000
FTUS41 KCAR 101509 AAA
TAFBHB
TAF AMD
KBHB 101509Z 1015/1112 33009KT P6SM SCT040
     FM101600 31012G20KT P6SM SCT050
     FM110000 32008KT P6SM SCT060=

USA.gov is the U.S. government's official web portal to all federal, state and local government web resources and services.